Latest Weather Observations for Cunderdin Airport

IDW60801

Issued at 9:33 am WST Sunday 25 September 2016 (issued every 30 minutes, with the page automatically refreshed every 10 minutes)

About weather observations | Map of weather stations | Latest weather observations for WA | Other Formats
Station Details ID: 010286 Name: CUNDERDIN AIRFIELD Lat: -31.62 Lon: 117.22 Height: 216.7 m
Data from the previous 72 hours. | See also: Recent months at Cunderdin Airport
Date/Time
WST
Temp
°C
App
Temp
°C
Dew
Point
°C
Rel
Hum
%
Delta-T
°C
Wind Press
QNH
hPa
Press
MSL
hPa
Rain since
9am
mm
Dir  Spd
km/h
Gust
km/h
Spd
kts
Gust
kts
25/09:30am 11.2 8.3 8.1 81 1.5 SW 13 20 7 11 1017.8 1017.8 0.0
25/09:00am 10.1 7.5 7.7 85 1.2 SW 11 13 6 7 1017.6 1017.6 0.0
25/08:30am 8.5 6.5 7.0 90 0.7 WSW 7 9 4 5 1017.2 1017.2 0.0
25/08:00am 8.0 6.1 6.9 93 0.5 WSW 6 7 3 4 1017.0 1017.0 0.0
25/07:30am 6.3 5.3 5.6 95 0.3 CALM 0 0 0 0 1016.6 1016.5 0.0
25/07:00am 5.0 3.8 4.6 97 0.2 CALM 0 0 0 0 1016.3 1016.2 0.0
25/06:30am 4.1 1.0 3.8 98 0.1 SSE 9 13 5 7 1015.9 1015.8 0.0
25/06:00am 2.3 0.2 1.9 97 0.2 NE 2 6 1 3 1015.5 1015.4 0.0
25/05:30am 0.8 -1.2 0.2 96 0.2 CALM 0 0 0 0 1015.4 1015.3 0.0
25/05:00am 1.2 -1.8 0.6 96 0.2 WNW 6 9 3 5 1015.2 1015.1 0.0
25/04:30am 2.1 0.4 1.7 97 0.2 CALM 0 0 0 0 1015.3 1015.2 0.0
25/04:00am 1.6 -0.2 1.2 97 0.2 CALM 0 0 0 0 1015.1 1015.0 0.0
25/03:30am 1.5 -0.3 0.9 96 0.2 CALM 0 0 0 0 1014.7 1014.6 0.0
25/03:00am 0.4 -1.6 -0.3 95 0.3 CALM 0 0 0 0 1014.6 1014.5 0.0
25/02:30am 1.3 -0.6 0.7 96 0.2 CALM 0 0 0 0 1014.7 1014.6 0.0
25/02:00am 1.3 -0.6 0.6 95 0.3 CALM 0 0 0 0 1014.9 1014.8 0.0
25/01:30am 2.5 0.8 1.9 96 0.2 CALM 0 0 0 0 1015.0 1014.9 0.0
25/01:00am 2.2 0.5 1.6 96 0.2 CALM 0 0 0 0 1015.0 1014.9 0.0
25/12:30am 1.7 -0.1 1.0 95 0.3 CALM 0 0 0 0 1014.9 1014.8 0.0
25/12:00am 3.4 1.8 2.7 95 0.3 CALM 0 0 0 0 1015.0 1014.9 0.0
 
Date/Time
WST
Temp
°C
App
Temp
°C
Dew
Point
°C
Rel
Hum
%
Delta-T
°C
Wind Press
QNH
hPa
Press
MSL
hPa
Rain since
9am
mm
Dir  Spd
km/h
Gust
km/h
Spd
kts
Gust
kts
24/11:30pm 3.6 2.1 2.9 95 0.3 CALM 0 0 0 0 1015.1 1015.0 0.0
24/11:00pm 3.3 1.7 2.3 93 0.4 CALM 0 0 0 0 1015.4 1015.3 0.0
24/10:30pm 4.2 2.8 3.3 94 0.4 CALM 0 0 0 0 1015.5 1015.4 0.0
24/10:00pm 4.4 2.9 3.1 91 0.5 CALM 0 0 0 0 1015.8 1015.7 0.0
24/09:30pm 6.0 3.1 4.5 90 0.7 WNW 9 11 5 6 1015.8 1015.7 0.0
24/09:00pm 6.8 3.9 4.8 87 0.9 NNW 9 15 5 8 1015.8 1015.7 0.0
24/08:30pm 6.3 3.4 4.5 88 0.8 N 9 11 5 6 1015.7 1015.6 0.0
24/08:00pm 7.4 4.6 5.2 86 1.0 N 9 9 5 5 1015.6 1015.5 0.0
24/07:30pm 9.0 6.8 6.3 83 1.3 N 7 9 4 5 1015.5 1015.4 0.0
24/07:00pm 10.5 8.4 6.8 78 1.8 N 7 9 4 5 1015.3 1015.2 0.0
24/06:30pm 11.1 8.6 6.5 73 2.2 WNW 9 11 5 6 1015.2 1015.1 0.0
24/06:00pm 12.4 9.8 6.0 65 3.0 N 9 13 5 7 1015.0 1014.9 0.0
24/05:30pm 13.4 9.8 4.8 56 4.0 NNW 13 17 7 9 1015.0 1014.9 0.0
24/05:00pm 13.8 10.0 4.1 52 4.5 NW 13 20 7 11 1014.8 1014.7 0.0
24/04:30pm 14.2 10.3 3.4 48 4.9 WNW 13 22 7 12 1014.7 1014.6 0.0
24/04:00pm 14.5 10.9 3.0 46 5.2 WNW 11 17 6 9 1014.3 1014.3 0.0
24/03:30pm 15.0 11.0 2.9 44 5.5 NW 13 17 7 9 1014.2 1014.2 0.0
24/03:00pm 14.8 10.9 3.3 46 5.3 WNW 13 20 7 11 1014.6 1014.5 0.0
24/02:30pm 14.7 10.1 3.5 47 5.1 WSW 17 22 9 12 1015.0 1014.9 0.0
24/02:00pm 14.2 10.2 3.1 47 5.0 W 13 20 7 11 1015.3 1015.2 0.0
24/01:30pm 14.4 10.5 3.5 48 5.0 NW 13 20 7 11 1015.6 1015.5 0.0
24/01:00pm 14.7 10.3 2.9 45 5.3 NNW 15 26 8 14 1016.1 1016.0 0.0
24/12:30pm 14.6 11.0 2.8 45 5.3 NW 11 19 6 10 1016.6 1016.5 0.0
24/12:00pm 14.0 10.1 3.2 48 4.9 WNW 13 19 7 10 1017.1 1017.1 0.0
24/11:30am 15.4 12.3 3.5 45 5.5 WNW 9 17 5 9 1017.4 1017.4 0.0
24/11:00am 14.9 11.3 3.1 45 5.4 SW 11 17 6 9 1017.7 1017.7 0.0
24/10:30am 12.9 9.9 2.2 48 4.7 S 7 13 4 7 1018.0 1018.0 0.0
24/10:00am 12.8 10.0 3.2 52 4.3 NW 7 17 4 9 1017.9 1017.9 0.0
24/09:30am 12.2 9.8 4.4 59 3.6 ESE 6 15 3 8 1018.3 1018.3 0.0
24/09:00am 11.3 8.7 6.0 70 2.5 ENE 9 15 5 8 1018.5 1018.5 0.8
24/08:30am 8.9 5.8 5.5 79 1.6 NE 11 15 6 8 1018.7 1018.7 0.8
24/08:00am 6.5 3.6 4.8 89 0.7 ENE 9 11 5 6 1018.5 1018.5 0.8
24/07:30am 4.0 2.5 3.1 94 0.4 CALM 0 0 0 0 1018.7 1018.7 0.8
24/07:00am 1.4 -0.4 1.0 97 0.2 CALM 0 0 0 0 1018.6 1018.6 0.8
24/06:30am -0.3 -3.2 -0.9 96 0.2 WSW 4 9 2 5 1018.4 1018.4 0.8
24/06:00am -0.4 -2.5 -0.8 97 0.1 CALM 0 0 0 0 1018.3 1018.3 0.8
24/05:30am -0.5 -2.6 -1.1 96 0.2 CALM 0 0 0 0 1018.1 1018.1 0.8
24/05:00am -0.9 -3.1 -1.5 96 0.2 CALM 0 0 0 0 1017.8 1017.8 0.8
24/04:30am -0.8 -3.0 -1.4 96 0.2 CALM 0 0 0 0 1017.3 1017.3 0.8
24/04:00am -0.7 -2.9 -1.3 96 0.2 CALM 0 0 0 0 1016.9 1016.9 0.8
24/03:30am -0.1 -2.9 -0.7 96 0.2 W 4 6 2 3 1016.9 1016.9 0.8
24/03:00am 0.1 -2.7 -0.5 96 0.2 W 4 9 2 5 1017.1 1017.1 0.8
24/02:30am 0.0 -2.1 -0.6 96 0.2 CALM 0 0 0 0 1017.1 1017.1 0.8
24/02:00am 0.5 -1.5 -0.1 96 0.2 CALM 0 4 0 2 1016.8 1016.7 0.8
24/01:30am 0.0 -2.1 -0.8 94 0.3 CALM 0 6 0 3 1016.9 1016.9 0.8
24/01:00am 1.6 -0.2 1.0 96 0.2 CALM 0 0 0 0 1017.2 1017.2 0.8
24/12:30am 1.2 -0.7 0.3 94 0.3 CALM 0 0 0 0 1017.2 1017.2 0.8
24/12:00am 1.8 -1.4 0.9 94 0.3 WNW 7 11 4 6 1017.4 1017.4 0.8
 
Date/Time
WST
Temp
°C
App
Temp
°C
Dew
Point
°C
Rel
Hum
%
Delta-T
°C
Wind Press
QNH
hPa
Press
MSL
hPa
Rain since
9am
mm
Dir  Spd
km/h
Gust
km/h
Spd
kts
Gust
kts
23/11:30pm 2.8 -0.6 1.9 94 0.4 W 9 11 5 6 1017.2 1017.2 0.8
23/11:00pm 3.2 -0.5 2.3 94 0.4 WSW 11 13 6 7 1017.6 1017.6 0.8
23/10:30pm 3.3 -0.5 2.0 91 0.5 W 11 13 6 7 1017.8 1017.8 0.8
23/10:00pm 3.4 -0.3 2.1 91 0.5 WNW 11 13 6 7 1017.8 1017.8 0.8
23/09:30pm 4.1 0.4 2.5 89 0.7 WNW 11 13 6 7 1018.0 1018.0 0.8
23/09:00pm 4.2 0.9 2.7 90 0.6 W 9 11 5 6 1017.8 1017.8 0.8
23/08:30pm 4.4 1.5 2.6 88 0.7 NNW 7 9 4 5 1017.6 1017.6 0.6
23/08:00pm 5.2 1.6 3.1 86 0.9 SW 11 15 6 8 1017.3 1017.3 0.6
23/07:30pm 5.9 3.4 3.7 86 0.9 SW 6 7 3 4 1017.0 1017.0 0.6
23/07:00pm 6.9 3.5 3.9 81 1.3 SW 11 13 6 7 1016.5 1016.4 0.6
23/06:30pm 8.9 4.8 4.5 74 2.0 WSW 15 17 8 9 1016.1 1016.0 0.6
23/06:00pm 10.2 6.0 3.7 64 2.9 W 15 22 8 12 1015.8 1015.7 0.6
23/05:30pm 11.9 5.9 3.4 56 3.8 W 24 30 13 16 1015.3 1015.2 0.6
23/05:00pm 12.2 6.0 4.2 58 3.7 W 26 39 14 21 1015.1 1015.0 0.6
23/04:32pm 11.9 5.4 4.9 62 3.2 WSW 28 50 15 27 1014.9 1014.8 0.6
23/04:30pm 12.9 7.4 4.1 55 4.0 WSW 22 33 12 18 1014.8 1014.7 0.6
23/04:00pm 13.3 7.9 4.5 55 4.1 SW 22 32 12 17 1014.5 1014.4 0.6
23/03:30pm 13.7 7.7 5.1 56 4.1 SW 26 35 14 19 1014.5 1014.4 0.6
23/03:00pm 13.5 6.3 3.0 49 4.7 SW 30 44 16 24 1014.3 1014.3 0.6
23/02:30pm 14.5 7.2 5.6 55 4.3 SW 33 44 18 24 1014.0 1014.0 0.6
23/02:00pm 13.1 6.7 5.3 59 3.7 SW 28 37 15 20 1013.8 1013.8 0.6
23/01:30pm 14.9 10.3 6.5 57 4.1 WSW 20 28 11 15 1013.9 1013.9 0.6
23/01:00pm 13.3 8.9 6.4 63 3.3 SW 19 26 10 14 1014.5 1014.4 0.6
23/12:30pm 10.5 5.1 8.1 85 1.2 SW 26 37 14 20 1015.0 1014.9 0.6
23/12:21pm 9.8 2.1 7.2 84 1.2 SW 37 56 20 30 1015.0 1014.9 0.4
23/12:13pm 12.1 6.1 7.0 71 2.5 WSW 28 56 15 30 1014.8 1014.7 0.2
23/12:00pm 13.3 8.5 5.5 59 3.7 SW 20 30 11 16 1014.6 1014.5 0.2
23/11:30am 12.5 8.6 7.0 69 2.7 SW 17 24 9 13 1015.0 1014.9 0.2
23/11:00am 10.4 5.3 7.5 82 1.4 SW 24 33 13 18 1015.4 1015.3 0.2
23/10:36am 9.1 3.3 6.4 83 1.3 WSW 26 50 14 27 1015.5 1015.4 0.2
23/10:30am 12.0 7.6 5.0 62 3.3 WSW 17 32 9 17 1015.2 1015.1 0.0
23/10:00am 12.7 7.9 5.6 62 3.4 SW 20 28 11 15 1015.3 1015.2 0.0
23/09:30am 11.8 7.1 5.2 64 3.1 SW 19 28 10 15 1015.5 1015.4 0.0
23/09:00am 11.5 6.7 5.4 66 2.8 SW 20 30 11 16 1015.5 1015.4 3.4
23/08:30am 10.8 6.5 6.9 77 1.9 SW 19 24 10 13 1015.3 1015.2 3.4
23/08:00am 10.5 6.7 7.6 82 1.4 WSW 17 26 9 14 1015.0 1014.9 3.4
23/07:30am 9.3 6.4 8.1 92 0.6 WNW 13 17 7 9 1014.7 1014.6 3.4
23/07:00am 8.4 6.2 7.8 96 0.3 NW 9 11 5 6 1014.1 1014.1 3.4
23/06:30am 7.8 5.4 7.2 96 0.3 W 9 13 5 7 1014.0 1014.0 3.4
23/06:00am 7.6 4.8 7.0 96 0.3 W 11 13 6 7 1013.9 1013.9 3.4
23/05:30am 7.5 4.8 7.2 98 0.1 WNW 11 15 6 8 1013.5 1013.5 3.2
23/05:00am 6.3 3.7 6.0 98 0.1 W 9 11 5 6 1013.2 1013.2 3.2
23/04:30am 5.4 2.6 5.0 97 0.2 WNW 9 13 5 7 1013.0 1013.0 3.2
23/04:00am 6.2 3.5 5.6 96 0.3 N 9 11 5 6 1012.8 1012.7 3.2
23/03:30am 7.2 4.3 6.6 96 0.3 WNW 11 11 6 6 1012.7 1012.6 3.2
23/03:00am 8.3 5.7 7.9 97 0.2 WNW 11 13 6 7 1012.7 1012.6 3.2
23/02:30am 8.5 6.4 8.1 97 0.2 WNW 9 11 5 6 1012.6 1012.5 3.2
23/02:00am 8.8 6.7 8.4 97 0.2 WNW 9 13 5 7 1012.5 1012.4 3.2
23/01:30am 8.7 6.6 8.3 97 0.2 NNW 9 11 5 6 1012.6 1012.5 3.2
23/01:00am 8.6 6.1 8.2 97 0.2 NW 11 13 6 7 1012.7 1012.6 3.2
23/12:30am 8.6 6.1 8.2 97 0.2 N 11 13 6 7 1012.8 1012.7 3.2
23/12:00am 8.2 5.2 7.8 97 0.2 WSW 13 17 7 9 1013.4 1013.4 3.2
 
Date/Time
WST
Temp
°C
App
Temp
°C
Dew
Point
°C
Rel
Hum
%
Delta-T
°C
Wind Press
QNH
hPa
Press
MSL
hPa
Rain since
9am
mm
Dir  Spd
km/h
Gust
km/h
Spd
kts
Gust
kts
22/11:30pm 6.2 3.5 5.6 96 0.3 NNW 9 11 5 6 1013.0 1013.0 3.0
22/11:00pm 6.1 4.7 5.4 95 0.3 SW 2 6 1 3 1013.2 1013.2 3.0
22/10:30pm 6.6 4.3 5.9 95 0.3 N 7 9 4 5 1013.3 1013.3 3.0
22/10:00pm 7.3 5.1 6.4 94 0.4 N 7 9 4 5 1013.3 1013.3 3.0
22/09:30pm 7.8 5.0 6.9 94 0.4 WNW 11 15 6 8 1013.5 1013.5 3.0
22/09:00pm 8.3 5.9 7.1 92 0.6 W 9 11 5 6 1013.5 1013.5 3.0
22/08:30pm 9.5 6.5 7.8 89 0.8 WSW 13 19 7 10 1013.6 1013.6 3.0
22/08:00pm 9.5 6.7 8.4 93 0.5 WNW 13 15 7 8 1013.3 1013.3 3.0
22/07:30pm 10.4 7.3 9.0 91 0.7 W 15 17 8 9 1013.2 1013.2 3.0
22/07:00pm 11.7 8.0 9.3 85 1.2 W 19 24 10 13 1012.8 1012.7 3.0
22/06:30pm 12.1 9.8 10.5 90 0.8 W 13 20 7 11 1012.5 1012.4 3.0
22/06:00pm 12.9 9.6 11.0 88 1.0 WSW 19 26 10 14 1012.2 1012.1 3.0
22/05:30pm 13.5 9.5 11.7 89 1.0 WSW 24 33 13 18 1011.6 1011.5 3.0
22/05:00pm 13.7 8.2 11.9 89 1.0 SW 32 43 17 23 1011.1 1011.0 3.0
22/04:30pm 15.2 11.9 12.9 86 1.3 W 22 30 12 16 1010.6 1010.5 3.0
22/04:00pm 15.0 12.5 14.0 94 0.6 WNW 20 28 11 15 1010.3 1010.2 3.0
22/03:30pm 14.7 12.6 13.7 94 0.6 WNW 17 22 9 12 1010.3 1010.2 2.8
22/03:00pm 14.4 12.6 13.3 93 0.6 WNW 15 20 8 11 1010.2 1010.1 2.6
22/02:30pm 14.3 12.1 13.3 94 0.6 WNW 17 24 9 13 1010.5 1010.4 1.6
22/02:00pm 14.4 9.4 13.3 93 0.6 WSW 32 46 17 25 1010.8 1010.7 0.8
22/01:48pm 16.1 11.7 13.0 82 1.7 W 28 50 15 27 1010.6 1010.5 0.0
22/01:30pm 19.2 15.0 9.7 54 5.1 WNW 22 33 12 18 1010.0 1009.9 0.0
22/01:00pm 19.7 14.4 9.9 53 5.3 W 28 35 15 19 1010.1 1010.0 0.0
22/12:30pm 20.1 14.5 8.8 48 6.0 W 28 39 15 21 1010.1 1010.0 0.0
22/12:00pm 20.3 15.1 8.9 48 6.1 WNW 26 39 14 21 1010.4 1010.3 0.0
22/11:30am 19.8 14.6 8.8 49 5.8 WNW 26 37 14 20 1010.6 1010.5 0.0
22/11:00am 19.3 15.3 9.2 52 5.4 W 20 30 11 16 1011.0 1010.9 0.0
22/10:30am 18.5 14.2 9.3 55 4.9 W 22 32 12 17 1011.3 1011.2 0.0
22/10:00am 17.5 13.6 9.4 59 4.3 WSW 20 30 11 16 1011.5 1011.4 0.0

Other Formats:

Comma delimited format used in spreadsheet applications
http://www.bom.gov.au/fwo/IDW60801/IDW60801.95625.axf

JavaScript Object Notation format (JSON) in row-major order
http://www.bom.gov.au/fwo/IDW60801/IDW60801.95625.json